Time;durP1;ratioP1;P1;durP2;ratioP2;P2;SDS_P1;SDS_P2;PMS_P1;PMS_P2;Temp;Humidity;BMP_temperature;BMP_pressure;BME280_temperature;BME280_humidity;BME280_pressure;Samples;Min_cycle;Max_cycle;Signal;HPM_P1;HPM_P2
2022/07/16 08:12:05;;;;;;;1.77;1.08;;;;;;;;;;5124494;27;20342;-62
2022/07/16 08:14:31;;;;;;;6.22;1.17;;;;;;;;;;5127720;27;20606;-66
2022/07/16 08:16:58;;;;;;;3.05;1.08;;;;;;;;;;5128782;27;20091;-63
2022/07/16 08:19:24;;;;;;;2.17;0.80;;;;;;;;;;5128001;27;20082;-64
2022/07/16 08:21:51;;;;;;;2.42;0.95;;;;;;;;;;5114789;27;20570;-64
2022/07/16 08:27:02;;;;;;;6.20;1.00;;;;;;;;;;5111631;27;20156;-64
2022/07/16 08:29:29;;;;;;;3.42;1.10;;;;;;;;;;5112744;27;20494;-64
2022/07/16 08:31:55;;;;;;;4.88;0.90;;;;;;;;;;5123229;27;20052;-64
2022/07/16 08:34:23;;;;;;;6.30;1.40;;;;;;;;;;5124751;27;20054;-64
2022/07/16 08:36:50;;;;;;;4.97;1.70;;;;;;;;;;5129428;27;20056;-64
2022/07/16 08:39:16;;;;;;;3.42;1.30;;;;;;;;;;5129312;27;20091;-64
2022/07/16 08:41:44;;;;;;;3.92;1.55;;;;;;;;;;5129552;27;20134;-65
2022/07/16 08:44:11;;;;;;;3.85;1.10;;;;;;;;;;5112257;27;20052;-65
2022/07/16 08:46:38;;;;;;;2.90;1.30;;;;;;;;;;5107233;28;20099;-63
2022/07/16 08:49:04;;;;;;;4.93;1.00;;;;;;;;;;5115656;27;20169;-63
2022/07/16 08:51:32;;;;;;;1.73;0.82;;;;;;;;;;5129298;27;20052;-63
2022/07/16 08:54:01;;;;;;;1.27;0.90;;;;;;;;;;5119495;27;20052;-63
2022/07/16 08:56:28;;;;;;;5.95;1.48;;;;;;;;;;5116067;27;20059;-64
2022/07/16 08:58:55;;;;;;;5.10;0.93;;;;;;;;;;5109547;27;20063;-63
2022/07/16 09:01:25;;;;;;;2.88;0.80;;;;;;;;;;5126782;27;20139;-63
2022/07/16 09:03:51;;;;;;;3.72;0.98;;;;;;;;;;5110148;27;21044;-64
2022/07/16 09:06:18;;;;;;;3.15;1.00;;;;;;;;;;5123796;27;20052;-64
2022/07/16 09:08:45;;;;;;;4.60;0.88;;;;;;;;;;5129291;27;20052;-63
2022/07/16 09:11:25;;;;;;;5.97;0.95;;;;;;;;;;5125706;27;20055;-64
2022/07/16 09:13:59;;;;;;;3.45;1.00;;;;;;;;;;5129519;27;20151;-63
2022/07/16 09:16:33;;;;;;;2.22;0.95;;;;;;;;;;5128580;27;20560;-64
2022/07/16 09:19:02;;;;;;;6.82;1.45;;;;;;;;;;5125284;27;20059;-63
2022/07/16 09:21:34;;;;;;;1.95;0.60;;;;;;;;;;5106652;27;20055;-64
2022/07/16 09:24:00;;;;;;;2.63;0.93;;;;;;;;;;5115116;27;21006;-64
2022/07/16 09:26:27;;;;;;;1.85;0.90;;;;;;;;;;5115405;27;20063;-64
2022/07/16 09:28:54;;;;;;;2.78;1.05;;;;;;;;;;5107638;27;20044;-64
2022/07/16 09:31:50;;;;;;;1.88;0.80;;;;;;;;;;5094504;28;20147;-64
2022/07/16 09:34:19;;;;;;;2.58;0.77;;;;;;;;;;5085064;28;20492;-64
2022/07/16 09:37:00;;;;;;;6.72;0.90;;;;;;;;;;5094550;28;20142;-63
2022/07/16 09:39:27;;;;;;;2.50;1.10;;;;;;;;;;5099299;27;20091;-64
2022/07/16 09:41:54;;;;;;;2.65;1.10;;;;;;;;;;5094218;28;20049;-64
2022/07/16 09:44:24;;;;;;;4.53;1.30;;;;;;;;;;5109951;28;20110;-64
2022/07/16 09:46:57;;;;;;;3.25;0.90;;;;;;;;;;5113676;27;20491;-64
2022/07/16 09:49:23;;;;;;;2.65;1.02;;;;;;;;;;5114545;27;20079;-64
2022/07/16 09:51:49;;;;;;;7.00;1.63;;;;;;;;;;5114376;27;20086;-65
2022/07/16 09:54:31;;;;;;;3.75;1.08;;;;;;;;;;5108618;27;20057;-65
2022/07/16 09:57:15;;;;;;;3.60;1.00;;;;;;;;;;5094969;28;20072;-64
2022/07/16 09:59:42;;;;;;;3.77;1.00;;;;;;;;;;5106704;27;20118;-64
2022/07/16 10:02:26;;;;;;;5.70;1.10;;;;;;;;;;5094411;28;20057;-64
2022/07/16 10:04:53;;;;;;;4.70;1.20;;;;;;;;;;5093966;28;20056;-64
2022/07/16 10:07:25;;;;;;;2.88;1.00;;;;;;;;;;5109553;27;20130;-66
2022/07/16 10:09:51;;;;;;;3.45;0.98;;;;;;;;;;5093618;28;20052;-65
2022/07/16 10:12:19;;;;;;;3.95;1.20;;;;;;;;;;5100136;28;20135;-65
2022/07/16 10:14:47;;;;;;;3.38;1.00;;;;;;;;;;5106776;27;20048;-65
2022/07/16 10:17:30;;;;;;;5.85;1.52;;;;;;;;;;5102624;28;20052;-65
2022/07/16 10:19:57;;;;;;;4.38;1.00;;;;;;;;;;5103664;28;20052;-66
2022/07/16 10:22:31;;;;;;;1.92;1.08;;;;;;;;;;5106650;27;20063;-65
2022/07/16 10:24:58;;;;;;;4.10;0.63;;;;;;;;;;5107136;28;20500;-64
2022/07/16 10:27:32;;;;;;;5.25;1.17;;;;;;;;;;5103139;27;20522;-66
2022/07/16 10:30:13;;;;;;;3.17;1.20;;;;;;;;;;5097049;28;20132;-65
2022/07/16 10:33:17;;;;;;;5.68;0.90;;;;;;;;;;5098914;27;20119;-65
2022/07/16 10:35:49;;;;;;;2.85;0.90;;;;;;;;;;5039896;28;20548;-64
2022/07/16 10:38:18;;;;;;;5.00;1.00;;;;;;;;;;5098401;28;20131;-65
2022/07/16 10:41:03;;;;;;;3.72;1.40;;;;;;;;;;5106757;27;20052;-65
2022/07/16 10:43:29;;;;;;;4.82;0.85;;;;;;;;;;5106367;27;20159;-65
2022/07/16 10:46:00;;;;;;;3.97;1.10;;;;;;;;;;5094244;28;20056;-64
2022/07/16 10:48:30;;;;;;;3.70;1.10;;;;;;;;;;5105333;28;20080;-64
2022/07/16 10:51:15;;;;;;;2.65;1.00;;;;;;;;;;5112511;27;20072;-66
2022/07/16 10:53:57;;;;;;;3.33;0.90;;;;;;;;;;5102154;28;20600;-65
2022/07/16 10:56:37;;;;;;;3.33;1.20;;;;;;;;;;5110109;27;20105;-63
2022/07/16 10:59:04;;;;;;;1.95;1.02;;;;;;;;;;5108677;27;20048;-65
2022/07/16 11:01:31;;;;;;;4.78;1.05;;;;;;;;;;5101466;28;20051;-65
2022/07/16 11:03:58;;;;;;;4.38;1.02;;;;;;;;;;5109274;27;20059;-66
2022/07/16 11:06:25;;;;;;;2.10;0.80;;;;;;;;;;5105881;27;20048;-64
2022/07/16 11:08:55;;;;;;;5.07;1.27;;;;;;;;;;5106220;27;20135;-67
2022/07/16 11:11:21;;;;;;;3.88;1.00;;;;;;;;;;5093324;28;20068;-64
2022/07/16 11:13:49;;;;;;;4.57;1.10;;;;;;;;;;5100202;28;20053;-65
2022/07/16 11:16:22;;;;;;;2.78;1.15;;;;;;;;;;5108481;28;20595;-64
2022/07/16 11:18:49;;;;;;;12.77;1.48;;;;;;;;;;5112770;27;20429;-62
2022/07/16 11:21:15;;;;;;;10.50;1.65;;;;;;;;;;5109219;27;20087;-64
2022/07/16 11:23:48;;;;;;;2.78;1.10;;;;;;;;;;5097112;28;20060;-64
2022/07/16 11:26:15;;;;;;;4.97;1.67;;;;;;;;;;5092397;28;20056;-61
2022/07/16 11:28:55;;;;;;;5.97;1.20;;;;;;;;;;5102069;27;20111;-62
2022/07/16 11:31:23;;;;;;;6.28;1.00;;;;;;;;;;5106641;27;20113;-62
2022/07/16 11:33:49;;;;;;;2.08;0.70;;;;;;;;;;5112350;27;20063;-62
2022/07/16 11:36:15;;;;;;;3.03;1.00;;;;;;;;;;5113214;27;20055;-63
2022/07/16 11:38:43;;;;;;;2.65;1.05;;;;;;;;;;5111878;27;20484;-63
2022/07/16 11:41:10;;;;;;;2.88;0.93;;;;;;;;;;5111032;28;20058;-65
2022/07/16 11:43:36;;;;;;;3.55;0.90;;;;;;;;;;5111539;27;20052;-65
2022/07/16 11:46:02;;;;;;;3.30;1.20;;;;;;;;;;5112089;27;20573;-65
2022/07/16 11:48:36;;;;;;;3.60;0.98;;;;;;;;;;5111741;27;20083;-68
2022/07/16 11:51:07;;;;;;;6.47;1.20;;;;;;;;;;5111304;27;20056;-65
2022/07/16 11:53:36;;;;;;;3.53;0.90;;;;;;;;;;5102880;27;20055;-64
2022/07/16 11:56:05;;;;;;;7.28;1.25;;;;;;;;;;5100074;28;20072;-66
2022/07/16 11:58:32;;;;;;;9.25;1.30;;;;;;;;;;5103513;28;20080;-66
2022/07/16 12:00:59;;;;;;;3.10;1.33;;;;;;;;;;5099710;27;20595;-65
2022/07/16 12:03:25;;;;;;;5.00;1.10;;;;;;;;;;5111435;27;20056;-65
2022/07/16 12:05:59;;;;;;;6.07;1.35;;;;;;;;;;5111155;27;20048;-64
2022/07/16 12:08:27;;;;;;;6.20;1.05;;;;;;;;;;5106435;27;20052;-65
2022/07/16 12:11:00;;;;;;;3.53;0.85;;;;;;;;;;5105790;27;20496;-66
2022/07/16 12:13:26;;;;;;;3.65;1.20;;;;;;;;;;5105757;28;20048;-64
2022/07/16 12:15:53;;;;;;;3.90;0.98;;;;;;;;;;5100767;28;20052;-65
2022/07/16 12:18:20;;;;;;;4.72;1.10;;;;;;;;;;5102431;27;20551;-65
2022/07/16 12:20:47;;;;;;;5.18;1.27;;;;;;;;;;5102364;27;20512;-65
2022/07/16 12:23:14;;;;;;;3.38;0.93;;;;;;;;;;5106662;28;20059;-65
2022/07/16 12:25:42;;;;;;;6.00;1.85;;;;;;;;;;5098641;28;20144;-66
2022/07/16 12:28:21;;;;;;;7.38;1.48;;;;;;;;;;5101579;28;20056;-66
2022/07/16 12:30:58;;;;;;;3.67;1.38;;;;;;;;;;5096995;27;20057;-65
2022/07/16 12:33:28;;;;;;;4.70;1.17;;;;;;;;;;5105537;28;20052;-66
2022/07/16 12:35:58;;;;;;;3.08;0.70;;;;;;;;;;5111507;27;20062;-67
2022/07/16 12:38:33;;;;;;;6.50;1.05;;;;;;;;;;5111873;27;20468;-67
2022/07/16 12:40:59;;;;;;;4.10;1.10;;;;;;;;;;5111452;27;20056;-66
2022/07/16 12:43:26;;;;;;;5.88;1.30;;;;;;;;;;5111286;27;20527;-66
2022/07/16 12:45:53;;;;;;;3.83;0.90;;;;;;;;;;5112841;27;20106;-67
2022/07/16 12:48:19;;;;;;;5.95;1.35;;;;;;;;;;5111690;27;20056;-67
2022/07/16 12:50:46;;;;;;;3.50;0.75;;;;;;;;;;5112323;27;20418;-66
2022/07/16 12:53:12;;;;;;;4.28;1.02;;;;;;;;;;5098330;27;20044;-66
2022/07/16 13:01:08;;;;;;;11.00;1.70;;;;;;;;;;5115296;28;20055;-65
2022/07/16 13:03:35;;;;;;;2.40;0.82;;;;;;;;;;5115032;27;20060;-65
2022/07/16 13:06:01;;;;;;;7.35;1.38;;;;;;;;;;5115251;27;20044;-66
2022/07/16 13:08:28;;;;;;;3.90;1.10;;;;;;;;;;5108196;27;20052;-66
2022/07/16 13:10:54;;;;;;;3.28;1.10;;;;;;;;;;5115493;27;20063;-65
2022/07/16 13:13:27;;;;;;;2.40;0.98;;;;;;;;;;5113268;28;20059;-64
2022/07/16 13:15:54;;;;;;;3.10;1.00;;;;;;;;;;5116018;27;20496;-66
2022/07/16 13:18:20;;;;;;;6.13;1.08;;;;;;;;;;5115319;28;20056;-64
2022/07/16 13:20:47;;;;;;;4.03;1.42;;;;;;;;;;5115427;27;20075;-64
2022/07/16 13:23:13;;;;;;;4.18;1.00;;;;;;;;;;5115280;27;20479;-66
2022/07/16 13:25:40;;;;;;;10.63;1.50;;;;;;;;;;5100012;28;20052;-66
2022/07/16 13:28:07;;;;;;;4.65;1.17;;;;;;;;;;5113937;27;20062;-66
2022/07/16 13:30:34;;;;;;;3.60;1.00;;;;;;;;;;5114682;27;20062;-66
2022/07/16 13:33:00;;;;;;;2.20;1.10;;;;;;;;;;5114717;27;20700;-66
2022/07/16 13:35:27;;;;;;;8.35;1.40;;;;;;;;;;5112692;27;20056;-66
2022/07/16 13:37:53;;;;;;;8.50;1.48;;;;;;;;;;5108381;27;20076;-66
2022/07/16 13:40:19;;;;;;;4.53;1.13;;;;;;;;;;5098541;27;20136;-66
2022/07/16 13:42:46;;;;;;;4.40;1.30;;;;;;;;;;5114837;27;20139;-66
2022/07/16 13:45:12;;;;;;;4.00;1.35;;;;;;;;;;5118844;27;20079;-65
2022/07/16 13:47:38;;;;;;;4.13;1.00;;;;;;;;;;5115507;27;20083;-65
2022/07/16 13:50:06;;;;;;;2.58;0.90;;;;;;;;;;5114251;27;20089;-66
2022/07/16 13:52:32;;;;;;;6.40;1.35;;;;;;;;;;5109164;27;20076;-66
2022/07/16 13:54:59;;;;;;;2.13;0.88;;;;;;;;;;5111667;27;20136;-66
2022/07/16 14:00:10;;;;;;;4.70;1.52;;;;;;;;;;5109597;27;20071;-65
2022/07/16 14:02:36;;;;;;;5.38;1.42;;;;;;;;;;5113109;27;20540;-66
2022/07/16 14:05:03;;;;;;;4.60;1.30;;;;;;;;;;5114456;27;20091;-67
2022/07/16 14:07:29;;;;;;;2.83;0.95;;;;;;;;;;5113245;27;20478;-67
2022/07/16 14:09:56;;;;;;;4.07;0.80;;;;;;;;;;5123754;27;20047;-67
2022/07/16 14:12:22;;;;;;;4.50;1.23;;;;;;;;;;5115029;27;20049;-68
2022/07/16 14:14:48;;;;;;;4.18;0.90;;;;;;;;;;5107627;28;20052;-68
2022/07/16 14:17:15;;;;;;;2.95;1.17;;;;;;;;;;5107277;27;20087;-69
2022/07/16 14:19:41;;;;;;;3.72;0.93;;;;;;;;;;5106307;28;20060;-67
2022/07/16 14:22:07;;;;;;;4.05;0.90;;;;;;;;;;5107751;27;20130;-68
2022/07/16 14:24:34;;;;;;;3.88;0.98;;;;;;;;;;5104370;27;20163;-67
2022/07/16 14:27:01;;;;;;;4.20;1.23;;;;;;;;;;5128865;27;20050;-67
2022/07/16 14:29:28;;;;;;;4.78;1.15;;;;;;;;;;5104097;27;20547;-67
2022/07/16 14:31:55;;;;;;;3.88;1.30;;;;;;;;;;5108829;27;20543;-67
2022/07/16 14:34:21;;;;;;;2.90;0.93;;;;;;;;;;5113945;27;20052;-67
2022/07/16 14:36:47;;;;;;;5.85;1.30;;;;;;;;;;5116415;27;20564;-66
2022/07/16 14:39:14;;;;;;;3.72;1.35;;;;;;;;;;5114900;27;20127;-67
2022/07/16 14:41:40;;;;;;;5.63;1.23;;;;;;;;;;5113436;27;20467;-67
2022/07/16 14:44:06;;;;;;;7.35;2.03;;;;;;;;;;5115552;27;20056;-66
2022/07/16 14:46:33;;;;;;;4.70;0.95;;;;;;;;;;5106464;27;20048;-67
2022/07/16 14:48:59;;;;;;;6.35;1.10;;;;;;;;;;5113265;27;20052;-67
2022/07/16 14:51:25;;;;;;;3.83;1.05;;;;;;;;;;5109006;27;20052;-69
2022/07/16 14:53:54;;;;;;;5.38;1.25;;;;;;;;;;5107718;28;20521;-66
2022/07/16 14:56:20;;;;;;;4.15;1.35;;;;;;;;;;5118296;27;20058;-67
2022/07/16 14:58:46;;;;;;;2.60;1.20;;;;;;;;;;5112953;28;20139;-67
2022/07/16 15:01:13;;;;;;;3.97;1.20;;;;;;;;;;5107682;27;20052;-66
2022/07/16 15:03:39;;;;;;;4.13;1.20;;;;;;;;;;5111412;28;20565;-66
2022/07/16 15:06:05;;;;;;;4.93;1.10;;;;;;;;;;5111788;27;20091;-66
2022/07/16 15:08:32;;;;;;;6.60;1.05;;;;;;;;;;5113247;27;20087;-67
2022/07/16 15:10:58;;;;;;;5.32;1.40;;;;;;;;;;5107863;27;20060;-67
2022/07/16 15:13:24;;;;;;;3.70;1.10;;;;;;;;;;5115120;27;20052;-67
2022/07/16 15:15:51;;;;;;;4.05;1.10;;;;;;;;;;5108750;28;20052;-66
2022/07/16 15:18:17;;;;;;;8.48;1.98;;;;;;;;;;5105752;27;20048;-65
2022/07/16 15:20:44;;;;;;;3.50;1.35;;;;;;;;;;5103993;28;20052;-66
2022/07/16 15:23:10;;;;;;;4.82;1.30;;;;;;;;;;5096417;27;20057;-66
2022/07/16 15:25:37;;;;;;;7.22;1.65;;;;;;;;;;5106676;28;20201;-67
2022/07/16 15:28:03;;;;;;;3.83;1.30;;;;;;;;;;5108070;27;20143;-67
2022/07/16 15:30:30;;;;;;;3.80;1.20;;;;;;;;;;5093997;28;20079;-66
2022/07/16 15:33:37;;;;;;;4.22;1.40;;;;;;;;;;5105465;28;20051;-65
2022/07/16 15:35:42;;;;;;;6.53;1.55;;;;;;;;;;5107255;27;20090;-65
2022/07/16 15:38:09;;;;;;;4.95;1.27;;;;;;;;;;5103313;28;20048;-66
2022/07/16 15:40:35;;;;;;;3.97;1.55;;;;;;;;;;5108656;27;20205;-63
2022/07/16 15:43:22;;;;;;;4.68;1.52;;;;;;;;;;5104239;27;20063;-66
2022/07/16 15:45:48;;;;;;;5.50;1.58;;;;;;;;;;5098277;27;20139;-65
2022/07/16 15:48:15;;;;;;;5.70;1.67;;;;;;;;;;5101111;27;20558;-66
2022/07/16 15:50:41;;;;;;;2.30;1.38;;;;;;;;;;5105870;28;20087;-66
2022/07/16 15:53:07;;;;;;;6.72;1.10;;;;;;;;;;5108012;27;20044;-66
2022/07/16 15:55:34;;;;;;;4.22;1.20;;;;;;;;;;5109759;27;20079;-66
2022/07/16 15:58:01;;;;;;;6.03;1.60;;;;;;;;;;5108946;27;20102;-64
2022/07/16 16:00:28;;;;;;;5.55;1.20;;;;;;;;;;5112400;28;20146;-64
2022/07/16 16:02:54;;;;;;;4.63;1.20;;;;;;;;;;5111825;27;20056;-65
2022/07/16 16:05:21;;;;;;;5.93;1.60;;;;;;;;;;5111199;27;20503;-65
2022/07/16 16:07:47;;;;;;;4.63;1.25;;;;;;;;;;5102548;27;20512;-66
2022/07/16 16:10:14;;;;;;;7.55;2.20;;;;;;;;;;5106873;28;20059;-66
2022/07/16 16:12:42;;;;;;;4.88;1.90;;;;;;;;;;5102457;28;20052;-66
2022/07/16 16:15:12;;;;;;;4.28;1.40;;;;;;;;;;5112698;27;20087;-66
2022/07/16 16:17:39;;;;;;;5.95;1.88;;;;;;;;;;5111281;27;20054;-65
2022/07/16 16:20:06;;;;;;;3.28;1.23;;;;;;;;;;5104055;27;20090;-65
2022/07/16 16:22:34;;;;;;;3.10;1.45;;;;;;;;;;5101973;27;20078;-66
2022/07/16 16:25:05;;;;;;;5.13;1.52;;;;;;;;;;5098790;27;20056;-66
2022/07/16 16:27:33;;;;;;;6.95;1.52;;;;;;;;;;5100696;27;20059;-67
2022/07/16 16:30:00;;;;;;;5.10;1.48;;;;;;;;;;5111529;27;20453;-68
2022/07/16 16:32:26;;;;;;;6.15;1.58;;;;;;;;;;5098552;27;20451;-66
2022/07/16 16:34:53;;;;;;;7.38;2.40;;;;;;;;;;5099872;27;20051;-68
2022/07/16 16:37:20;;;;;;;5.57;1.65;;;;;;;;;;5107331;27;20061;-67
2022/07/16 16:39:46;;;;;;;6.55;1.58;;;;;;;;;;5102699;28;20056;-67
2022/07/16 17:15:04;;;;;;;7.22;2.30;;;;;;;;;;5092007;28;20387;-64
2022/07/16 17:17:31;;;;;;;5.35;1.85;;;;;;;;;;5076194;28;20454;-64
2022/07/16 17:19:57;;;;;;;5.85;1.40;;;;;;;;;;5085603;28;20056;-65
2022/07/16 17:22:24;;;;;;;4.15;1.63;;;;;;;;;;5088084;28;20056;-62
2022/07/16 17:24:51;;;;;;;5.22;1.55;;;;;;;;;;5088293;28;20051;-63
2022/07/16 17:27:17;;;;;;;5.43;1.85;;;;;;;;;;5091481;28;20059;-64
2022/07/16 17:29:44;;;;;;;8.90;1.92;;;;;;;;;;5086133;28;20064;-65
2022/07/16 17:32:10;;;;;;;7.72;1.27;;;;;;;;;;5088343;28;20144;-65
2022/07/16 17:34:36;;;;;;;7.75;1.35;;;;;;;;;;5088816;28;20057;-66
2022/07/16 17:37:03;;;;;;;6.05;1.80;;;;;;;;;;5087751;28;20072;-64
2022/07/16 17:39:30;;;;;;;4.47;1.08;;;;;;;;;;5087987;28;20148;-65
2022/07/16 17:41:56;;;;;;;5.43;1.40;;;;;;;;;;5087025;28;20076;-66
2022/07/16 17:44:23;;;;;;;5.90;1.67;;;;;;;;;;5087625;28;20053;-65
2022/07/16 17:46:49;;;;;;;7.32;1.65;;;;;;;;;;5086761;28;20148;-67
2022/07/16 17:52:02;;;;;;;5.43;1.60;;;;;;;;;;5087400;28;20053;-66
2022/07/16 17:54:28;;;;;;;5.85;1.40;;;;;;;;;;5086142;28;20074;-65
2022/07/16 17:56:54;;;;;;;4.55;1.00;;;;;;;;;;5087997;28;20064;-65
2022/07/16 17:59:21;;;;;;;4.25;1.30;;;;;;;;;;5086954;28;20063;-66
2022/07/16 18:01:48;;;;;;;2.58;1.17;;;;;;;;;;5087667;28;20140;-66
2022/07/16 18:04:14;;;;;;;4.90;1.40;;;;;;;;;;5086967;28;20059;-66
2022/07/16 18:06:41;;;;;;;2.55;1.08;;;;;;;;;;5087095;28;20052;-66
2022/07/16 18:09:07;;;;;;;3.33;1.30;;;;;;;;;;5086551;28;20055;-67
2022/07/16 18:11:34;;;;;;;5.55;1.77;;;;;;;;;;5097225;28;20603;-65
2022/07/16 18:14:00;;;;;;;3.65;1.40;;;;;;;;;;5088814;27;20056;-66
2022/07/16 18:16:27;;;;;;;4.70;1.25;;;;;;;;;;5077683;28;20060;-67
2022/07/16 18:18:53;;;;;;;3.13;0.77;;;;;;;;;;5069858;28;20048;-67
2022/07/16 18:21:19;;;;;;;5.47;1.05;;;;;;;;;;5080081;28;20057;-67
2022/07/16 18:23:46;;;;;;;4.22;1.40;;;;;;;;;;5074646;28;20600;-67
2022/07/16 18:26:12;;;;;;;8.73;1.30;;;;;;;;;;5073084;28;20053;-68
2022/07/16 18:28:39;;;;;;;5.20;1.13;;;;;;;;;;5074111;28;20592;-67
2022/07/16 18:31:05;;;;;;;2.55;0.80;;;;;;;;;;5074182;28;20137;-67
2022/07/16 18:33:31;;;;;;;3.47;1.02;;;;;;;;;;5073149;28;20053;-66
2022/07/16 18:35:58;;;;;;;4.60;1.10;;;;;;;;;;5082015;28;20144;-66
2022/07/16 18:38:24;;;;;;;4.88;1.35;;;;;;;;;;5067169;28;20145;-67
2022/07/16 18:40:52;;;;;;;8.73;1.20;;;;;;;;;;5070230;28;20059;-67
2022/07/16 18:43:19;;;;;;;3.38;1.30;;;;;;;;;;5073350;28;20087;-68
2022/07/16 18:45:45;;;;;;;5.97;1.10;;;;;;;;;;5069205;28;20095;-66
2022/07/16 18:48:12;;;;;;;5.85;1.00;;;;;;;;;;5070996;28;20061;-67
2022/07/16 18:50:38;;;;;;;6.22;1.52;;;;;;;;;;5073705;28;20060;-66
2022/07/16 18:53:05;;;;;;;4.50;1.05;;;;;;;;;;5069296;28;20144;-66
2022/07/16 18:55:32;;;;;;;3.17;0.85;;;;;;;;;;5075257;28;20144;-66
2022/07/16 18:57:58;;;;;;;4.80;1.23;;;;;;;;;;5068185;28;20422;-66
2022/07/16 19:00:24;;;;;;;4.53;1.02;;;;;;;;;;5071647;28;20059;-66
2022/07/16 19:02:51;;;;;;;5.15;1.30;;;;;;;;;;5084930;28;20152;-66
2022/07/16 19:05:17;;;;;;;3.85;1.20;;;;;;;;;;5064753;28;20053;-65
2022/07/16 19:07:44;;;;;;;9.32;1.48;;;;;;;;;;5065514;28;20140;-65
2022/07/16 19:10:10;;;;;;;5.85;2.15;;;;;;;;;;5070859;28;20160;-66
2022/07/16 19:12:37;;;;;;;4.63;1.67;;;;;;;;;;5070159;28;20587;-66
2022/07/16 19:15:04;;;;;;;6.38;1.35;;;;;;;;;;5072992;28;20057;-66
2022/07/16 19:17:31;;;;;;;4.03;1.05;;;;;;;;;;5072940;28;20045;-66
2022/07/16 19:19:57;;;;;;;3.70;1.08;;;;;;;;;;5071894;28;20053;-67
2022/07/16 19:22:23;;;;;;;5.63;1.20;;;;;;;;;;5078876;28;20053;-67
2022/07/16 19:24:51;;;;;;;5.75;1.08;;;;;;;;;;5070822;28;20100;-67
2022/07/16 19:27:19;;;;;;;4.20;1.05;;;;;;;;;;5072009;28;20135;-68
2022/07/16 19:29:45;;;;;;;9.45;1.38;;;;;;;;;;5078653;28;20053;-67
2022/07/16 19:32:12;;;;;;;5.57;1.40;;;;;;;;;;5064775;28;20057;-66
2022/07/16 19:34:38;;;;;;;6.13;1.45;;;;;;;;;;5071379;28;20053;-65
2022/07/16 19:37:05;;;;;;;2.60;0.95;;;;;;;;;;5075197;28;20055;-65
2022/07/16 19:39:33;;;;;;;5.88;1.73;;;;;;;;;;5071891;28;20271;-65
2022/07/16 19:41:59;;;;;;;4.88;1.40;;;;;;;;;;5072316;28;20148;-65
2022/07/16 19:44:26;;;;;;;4.15;1.10;;;;;;;;;;5071153;28;20056;-65
2022/07/16 19:46:53;;;;;;;4.55;1.25;;;;;;;;;;5071325;28;20492;-65
2022/07/16 19:49:20;;;;;;;4.38;1.30;;;;;;;;;;5068516;28;20617;-64
2022/07/16 19:51:46;;;;;;;4.50;0.90;;;;;;;;;;5064241;28;20092;-65
2022/07/16 19:54:12;;;;;;;4.05;1.20;;;;;;;;;;5066040;28;20073;-65
2022/07/16 19:59:25;;;;;;;3.07;1.17;;;;;;;;;;5058795;28;20052;-66
2022/07/16 20:01:52;;;;;;;4.13;1.08;;;;;;;;;;5062640;28;20049;-65
2022/07/16 20:04:19;;;;;;;6.53;1.45;;;;;;;;;;5069492;28;20431;-65
2022/07/16 20:06:45;;;;;;;4.18;1.52;;;;;;;;;;5072888;28;20108;-64
2022/07/16 20:09:13;;;;;;;2.50;1.08;;;;;;;;;;5070923;28;20055;-65
2022/07/16 20:11:40;;;;;;;5.70;1.52;;;;;;;;;;5072024;28;20908;-65
2022/07/16 20:14:06;;;;;;;6.28;1.45;;;;;;;;;;5069224;28;20156;-65
2022/07/16 20:16:32;;;;;;;5.43;1.30;;;;;;;;;;5062262;28;21028;-65
2022/07/16 20:19:02;;;;;;;6.07;1.27;;;;;;;;;;5062200;28;20541;-66
2022/07/16 20:21:29;;;;;;;5.28;1.52;;;;;;;;;;5066837;28;20148;-64
2022/07/16 20:23:55;;;;;;;5.35;1.27;;;;;;;;;;5065934;28;21563;-65
2022/07/16 20:26:26;;;;;;;1.00;0.88;;;;;;;;;;5062082;28;20586;-65
2022/07/16 20:28:54;;;;;;;4.97;1.38;;;;;;;;;;5069659;28;20063;-66
2022/07/16 20:31:20;;;;;;;5.80;1.48;;;;;;;;;;5070714;28;20063;-68
2022/07/16 20:33:47;;;;;;;7.30;1.45;;;;;;;;;;5066573;28;20057;-66
2022/07/16 20:36:13;;;;;;;7.78;1.92;;;;;;;;;;5065193;28;20058;-65
2022/07/16 20:38:40;;;;;;;4.15;1.75;;;;;;;;;;5062229;28;20059;-66
2022/07/16 20:41:06;;;;;;;4.57;1.60;;;;;;;;;;5065427;28;20059;-66
2022/07/16 20:43:32;;;;;;;4.65;1.17;;;;;;;;;;5067781;28;20055;-65
2022/07/16 20:45:59;;;;;;;3.35;1.10;;;;;;;;;;5065205;28;20076;-65
2022/07/16 20:48:25;;;;;;;5.40;1.33;;;;;;;;;;5064887;28;20059;-67
2022/07/16 20:50:51;;;;;;;7.30;1.92;;;;;;;;;;5067155;28;20049;-64
2022/07/16 20:53:18;;;;;;;6.70;1.20;;;;;;;;;;5068267;28;20060;-64
2022/07/16 20:55:45;;;;;;;5.18;1.20;;;;;;;;;;5068096;28;20064;-64
2022/07/16 20:58:11;;;;;;;3.33;1.38;;;;;;;;;;5067197;28;20059;-64
2022/07/16 21:00:38;;;;;;;4.63;1.75;;;;;;;;;;5063793;28;20224;-64
2022/07/16 21:03:04;;;;;;;9.48;1.55;;;;;;;;;;5068786;28;20912;-64
2022/07/16 21:05:30;;;;;;;4.38;1.20;;;;;;;;;;5070340;28;20052;-64
2022/07/16 21:07:58;;;;;;;3.33;1.20;;;;;;;;;;5066786;28;20053;-64
2022/07/16 21:10:24;;;;;;;5.85;1.50;;;;;;;;;;5069837;28;20132;-64
2022/07/16 21:12:51;;;;;;;5.60;1.23;;;;;;;;;;5069216;28;20064;-65
2022/07/16 21:15:17;;;;;;;5.93;1.50;;;;;;;;;;5066814;28;20060;-64
2022/07/16 21:17:44;;;;;;;3.42;1.15;;;;;;;;;;5067692;28;20084;-64
2022/07/16 21:20:12;;;;;;;2.95;1.38;;;;;;;;;;5070317;28;20494;-64
2022/07/16 21:22:39;;;;;;;3.45;1.50;;;;;;;;;;5069610;28;20085;-64
2022/07/16 21:25:06;;;;;;;6.47;1.90;;;;;;;;;;5059581;28;20103;-64
2022/07/16 21:27:32;;;;;;;2.78;1.10;;;;;;;;;;5068070;28;20144;-65
2022/07/16 21:29:58;;;;;;;3.75;1.58;;;;;;;;;;5070255;28;20053;-65
2022/07/16 21:32:25;;;;;;;5.07;1.25;;;;;;;;;;5068578;28;20561;-64
2022/07/16 21:34:55;;;;;;;5.55;1.20;;;;;;;;;;5069447;28;20053;-64
2022/07/16 21:37:21;;;;;;;8.93;1.30;;;;;;;;;;5059749;28;20134;-65
2022/07/16 21:39:48;;;;;;;5.28;1.40;;;;;;;;;;5069496;28;20052;-64
2022/07/16 21:42:23;;;;;;;4.70;1.73;;;;;;;;;;5074012;28;20057;-65
2022/07/16 21:44:49;;;;;;;6.85;1.85;;;;;;;;;;5085487;28;20099;-66
2022/07/16 21:47:16;;;;;;;7.60;2.13;;;;;;;;;;5054878;28;20499;-65
2022/07/16 21:49:43;;;;;;;5.70;1.63;;;;;;;;;;5050591;28;20069;-66
2022/07/16 21:52:09;;;;;;;6.32;2.35;;;;;;;;;;5050684;28;20084;-64
2022/07/16 21:54:36;;;;;;;7.07;2.47;;;;;;;;;;5062208;28;20587;-65
2022/07/16 21:57:02;;;;;;;7.70;3.60;;;;;;;;;;5075854;28;20140;-64
2022/07/16 21:59:28;;;;;;;8.77;3.45;;;;;;;;;;5065714;28;20045;-63
2022/07/16 22:01:55;;;;;;;6.90;3.60;;;;;;;;;;5062776;28;20055;-65
2022/07/16 22:04:21;;;;;;;8.35;3.72;;;;;;;;;;5072600;28;20088;-64
2022/07/16 22:06:48;;;;;;;7.05;3.70;;;;;;;;;;5064292;28;20057;-64
2022/07/16 22:09:14;;;;;;;6.57;3.30;;;;;;;;;;5080569;28;20063;-64
2022/07/16 22:11:40;;;;;;;6.20;2.60;;;;;;;;;;5079737;28;20049;-65
2022/07/16 22:14:07;;;;;;;4.07;1.98;;;;;;;;;;5072508;28;20173;-64
2022/07/16 22:16:33;;;;;;;5.43;2.65;;;;;;;;;;5072331;28;20077;-64
2022/07/16 22:21:45;;;;;;;6.78;3.05;;;;;;;;;;5074338;28;20219;-64
2022/07/16 22:24:11;;;;;;;6.75;3.00;;;;;;;;;;5075920;28;20052;-64
2022/07/16 22:26:37;;;;;;;4.18;3.05;;;;;;;;;;5071751;28;20059;-64
2022/07/16 22:29:04;;;;;;;5.57;3.20;;;;;;;;;;5073845;28;20075;-64
2022/07/16 22:31:30;;;;;;;6.70;3.00;;;;;;;;;;5056002;28;20057;-64
2022/07/16 22:33:57;;;;;;;8.18;3.03;;;;;;;;;;5053732;28;20116;-64
2022/07/16 22:36:23;;;;;;;6.78;3.33;;;;;;;;;;5053695;28;20958;-64
2022/07/16 22:38:49;;;;;;;6.05;3.08;;;;;;;;;;5063327;28;20048;-65
2022/07/16 22:41:16;;;;;;;6.93;2.50;;;;;;;;;;5075320;28;20049;-66
2022/07/16 22:43:42;;;;;;;7.47;2.42;;;;;;;;;;5054542;28;20048;-65
2022/07/16 22:46:08;;;;;;;3.65;2.00;;;;;;;;;;5063111;28;20055;-65
2022/07/16 22:48:38;;;;;;;6.85;2.28;;;;;;;;;;5072317;28;20053;-64
2022/07/16 22:51:05;;;;;;;6.90;2.78;;;;;;;;;;5059638;28;20053;-66
2022/07/16 22:53:31;;;;;;;3.47;1.98;;;;;;;;;;5053476;28;20555;-65
2022/07/16 22:55:57;;;;;;;4.00;1.85;;;;;;;;;;5054441;28;20132;-65
2022/07/16 22:58:24;;;;;;;4.90;1.80;;;;;;;;;;5067485;28;20054;-65
2022/07/16 23:00:50;;;;;;;6.85;2.33;;;;;;;;;;5058366;28;20061;-65
2022/07/16 23:03:16;;;;;;;5.43;2.10;;;;;;;;;;5072053;28;20084;-65
2022/07/16 23:05:43;;;;;;;3.45;1.85;;;;;;;;;;5072007;28;20053;-65
2022/07/16 23:08:09;;;;;;;8.20;2.22;;;;;;;;;;5072766;28;20049;-65
2022/07/16 23:10:36;;;;;;;4.07;1.80;;;;;;;;;;5073631;28;20052;-65
2022/07/16 23:13:02;;;;;;;4.70;1.75;;;;;;;;;;5068623;28;20551;-65
2022/07/16 23:15:29;;;;;;;3.80;1.58;;;;;;;;;;5063049;28;20053;-65
2022/07/16 23:17:55;;;;;;;7.32;2.53;;;;;;;;;;5052855;28;20513;-66
2022/07/16 23:20:23;;;;;;;6.28;2.05;;;;;;;;;;5067876;28;20054;-65
2022/07/16 23:22:49;;;;;;;4.55;1.88;;;;;;;;;;5057450;28;20041;-64
2022/07/16 23:25:16;;;;;;;6.20;2.15;;;;;;;;;;5073784;28;20411;-65
2022/07/16 23:27:42;;;;;;;5.40;2.03;;;;;;;;;;5057405;28;20054;-65
2022/07/16 23:30:09;;;;;;;5.95;2.25;;;;;;;;;;5061880;28;20599;-66
2022/07/16 23:32:35;;;;;;;7.13;2.50;;;;;;;;;;5072454;28;20056;-64
2022/07/16 23:35:01;;;;;;;5.18;2.03;;;;;;;;;;5061910;28;20054;-64
2022/07/16 23:37:28;;;;;;;4.80;1.90;;;;;;;;;;5065941;28;20053;-65
2022/07/16 23:39:55;;;;;;;3.53;2.03;;;;;;;;;;5071276;28;20060;-65
2022/07/16 23:42:22;;;;;;;4.72;2.10;;;;;;;;;;5072163;28;20539;-65
2022/07/16 23:44:48;;;;;;;8.23;2.35;;;;;;;;;;5073538;28;20057;-64
2022/07/16 23:47:14;;;;;;;7.13;2.40;;;;;;;;;;5074820;28;20498;-64
2022/07/16 23:49:41;;;;;;;6.72;2.45;;;;;;;;;;5071640;28;20502;-64